Time;durP1;ratioP1;P1;durP2;ratioP2;P2;SDS_P1;SDS_P2;PMS_P1;PMS_P2;Temp;Humidity;BMP_temperature;BMP_pressure;BME280_temperature;BME280_humidity;BME280_pressure;Samples;Min_cycle;Max_cycle;Signal;HPM_P1;HPM_P2
2021/07/19 00:00:27;;;;;;;4.20;2.50;;;;;;;;;;5056544;28;20179;-83
2021/07/19 00:02:56;;;;;;;2.67;2.47;;;;;;;;;;5056353;28;20696;-83
2021/07/19 00:05:23;;;;;;;2.70;2.50;;;;;;;;;;5073922;28;20613;-83
2021/07/19 00:07:51;;;;;;;3.15;2.47;;;;;;;;;;5073653;28;20182;-83
2021/07/19 00:10:19;;;;;;;9.13;2.75;;;;;;;;;;5074377;28;20720;-83
2021/07/19 00:12:45;;;;;;;2.60;2.40;;;;;;;;;;5055950;28;20250;-83
2021/07/19 00:15:13;;;;;;;3.78;2.70;;;;;;;;;;5056250;28;20241;-83
2021/07/19 00:17:41;;;;;;;4.80;2.70;;;;;;;;;;5073811;28;20246;-83
2021/07/19 00:20:10;;;;;;;4.32;2.97;;;;;;;;;;5055741;28;20199;-83
2021/07/19 00:22:37;;;;;;;3.75;2.50;;;;;;;;;;5055764;28;20198;-83
2021/07/19 00:25:05;;;;;;;5.80;2.60;;;;;;;;;;5073905;28;20242;-83
2021/07/19 00:27:31;;;;;;;3.60;2.85;;;;;;;;;;5055831;28;20230;-83
2021/07/19 00:29:58;;;;;;;6.55;2.75;;;;;;;;;;5055420;28;20734;-83
2021/07/19 00:32:24;;;;;;;3.53;2.72;;;;;;;;;;5074030;28;20585;-83
2021/07/19 00:34:51;;;;;;;6.70;2.83;;;;;;;;;;5055239;28;20206;-83
2021/07/19 00:37:19;;;;;;;5.40;2.90;;;;;;;;;;5055639;28;20249;-82
2021/07/19 00:39:46;;;;;;;4.05;2.40;;;;;;;;;;5055685;28;20252;-82
2021/07/19 00:42:12;;;;;;;5.55;2.88;;;;;;;;;;5055631;28;20199;-83
2021/07/19 00:44:39;;;;;;;2.97;2.78;;;;;;;;;;5073534;28;20249;-81
2021/07/19 00:47:06;;;;;;;3.22;2.72;;;;;;;;;;5055510;28;20257;-83
2021/07/19 00:49:34;;;;;;;4.15;2.60;;;;;;;;;;5073081;28;20689;-83
2021/07/19 00:52:01;;;;;;;3.40;2.70;;;;;;;;;;5072929;28;20257;-83
2021/07/19 00:54:30;;;;;;;2.85;2.58;;;;;;;;;;5055550;28;20198;-84
2021/07/19 00:56:58;;;;;;;4.70;2.75;;;;;;;;;;5073623;28;20179;-83
2021/07/19 00:59:26;;;;;;;2.55;2.35;;;;;;;;;;5073478;28;20211;-83
2021/07/19 01:01:53;;;;;;;2.97;2.72;;;;;;;;;;5055331;28;20199;-81
2021/07/19 01:04:21;;;;;;;5.78;2.90;;;;;;;;;;5055177;28;20230;-81
2021/07/19 01:06:49;;;;;;;4.53;2.72;;;;;;;;;;5072912;28;20242;-84
2021/07/19 01:09:15;;;;;;;4.18;2.85;;;;;;;;;;5055732;28;20240;-83
2021/07/19 01:11:43;;;;;;;7.80;2.60;;;;;;;;;;5073044;28;20732;-84
2021/07/19 01:14:10;;;;;;;2.63;2.40;;;;;;;;;;5073340;28;20214;-83
2021/07/19 01:16:37;;;;;;;4.72;2.75;;;;;;;;;;5054953;28;20666;-83
2021/07/19 01:19:04;;;;;;;3.30;3.00;;;;;;;;;;5054445;28;20605;-82
2021/07/19 01:21:43;;;;;;;3.03;2.83;;;;;;;;;;5072860;28;20175;-83
2021/07/19 01:24:24;;;;;;;2.72;2.58;;;;;;;;;;5073441;28;20210;-83
2021/07/19 01:27:01;;;;;;;4.10;2.75;;;;;;;;;;5055046;28;20210;-83
2021/07/19 01:29:29;;;;;;;2.78;2.67;;;;;;;;;;5072428;28;20210;-82
2021/07/19 01:31:56;;;;;;;2.90;2.70;;;;;;;;;;5054317;28;20249;-82
2021/07/19 01:34:24;;;;;;;3.30;3.00;;;;;;;;;;5054300;28;20608;-82
2021/07/19 01:36:52;;;;;;;2.80;2.60;;;;;;;;;;5054932;28;20221;-82
2021/07/19 01:39:20;;;;;;;5.57;2.90;;;;;;;;;;5054601;28;20202;-82
2021/07/19 01:41:47;;;;;;;3.60;3.00;;;;;;;;;;5073398;28;20198;-82
2021/07/19 01:44:14;;;;;;;3.35;2.67;;;;;;;;;;5072926;28;20179;-82
2021/07/19 01:46:43;;;;;;;2.92;2.72;;;;;;;;;;5054998;28;20231;-82
2021/07/19 01:49:10;;;;;;;3.53;2.90;;;;;;;;;;5054926;28;20252;-82
2021/07/19 01:51:37;;;;;;;3.67;2.97;;;;;;;;;;5072119;28;20237;-82
2021/07/19 01:54:04;;;;;;;5.47;3.05;;;;;;;;;;5054746;28;20238;-82
2021/07/19 01:56:31;;;;;;;3.40;3.10;;;;;;;;;;5054601;28;20685;-82
2021/07/19 01:58:59;;;;;;;3.15;2.90;;;;;;;;;;5055014;28;20206;-82
2021/07/19 02:01:26;;;;;;;2.95;2.78;;;;;;;;;;5072464;28;20242;-82
2021/07/19 02:03:54;;;;;;;3.22;3.03;;;;;;;;;;5054438;28;20203;-82
2021/07/19 02:06:21;;;;;;;3.60;3.30;;;;;;;;;;5054637;28;20267;-82
2021/07/19 02:08:50;;;;;;;3.25;3.05;;;;;;;;;;5072740;28;20245;-82
2021/07/19 02:11:18;;;;;;;3.10;2.90;;;;;;;;;;5072407;28;20249;-84
2021/07/19 02:13:46;;;;;;;3.53;3.08;;;;;;;;;;5054314;28;20246;-83
2021/07/19 02:16:13;;;;;;;2.90;2.70;;;;;;;;;;5072037;28;20683;-84
2021/07/19 02:18:40;;;;;;;7.13;2.95;;;;;;;;;;5054410;28;20708;-84
2021/07/19 02:21:09;;;;;;;3.47;3.22;;;;;;;;;;5072216;28;20249;-83
2021/07/19 02:23:36;;;;;;;4.13;3.00;;;;;;;;;;5072032;28;20207;-83
2021/07/19 02:26:04;;;;;;;5.22;3.45;;;;;;;;;;5054597;28;20554;-84
2021/07/19 02:28:33;;;;;;;4.35;3.10;;;;;;;;;;5072132;28;20246;-83
2021/07/19 02:31:01;;;;;;;4.00;3.05;;;;;;;;;;5055596;28;20595;-84
2021/07/19 02:33:28;;;;;;;4.15;3.17;;;;;;;;;;5075846;28;20261;-83
2021/07/19 02:35:55;;;;;;;4.97;3.28;;;;;;;;;;5076147;28;20179;-84
2021/07/19 02:38:23;;;;;;;4.40;3.20;;;;;;;;;;5076163;28;20238;-83
2021/07/19 02:40:51;;;;;;;8.88;3.78;;;;;;;;;;5057641;28;20213;-83
2021/07/19 02:43:21;;;;;;;3.60;3.30;;;;;;;;;;5075912;28;20210;-83
2021/07/19 02:45:48;;;;;;;5.30;3.60;;;;;;;;;;5057481;28;20230;-83
2021/07/19 02:48:15;;;;;;;5.93;3.72;;;;;;;;;;5075867;28;20171;-84
2021/07/19 02:50:43;;;;;;;4.53;3.92;;;;;;;;;;5057743;28;20219;-83
2021/07/19 02:53:11;;;;;;;4.13;3.72;;;;;;;;;;5075464;28;20258;-83
2021/07/19 02:55:40;;;;;;;4.20;3.80;;;;;;;;;;5075731;28;20179;-84
2021/07/19 02:58:08;;;;;;;3.75;3.45;;;;;;;;;;5057708;28;20202;-83
2021/07/19 03:00:35;;;;;;;6.80;3.75;;;;;;;;;;5075510;28;20213;-83
2021/07/19 03:03:04;;;;;;;3.95;3.45;;;;;;;;;;5057643;28;20244;-83
2021/07/19 03:05:31;;;;;;;8.85;4.20;;;;;;;;;;5057562;28;20202;-83
2021/07/19 03:07:59;;;;;;;7.38;4.15;;;;;;;;;;5075496;28;20214;-82
2021/07/19 03:10:27;;;;;;;3.70;3.50;;;;;;;;;;5057519;28;20190;-82
2021/07/19 03:12:57;;;;;;;5.43;3.83;;;;;;;;;;5075324;28;20245;-83
2021/07/19 03:15:26;;;;;;;4.22;3.83;;;;;;;;;;5075110;28;20228;-83
2021/07/19 03:17:53;;;;;;;8.95;4.38;;;;;;;;;;5075414;28;20213;-83
2021/07/19 03:20:20;;;;;;;4.30;4.00;;;;;;;;;;5057367;28;20186;-83
2021/07/19 03:22:48;;;;;;;6.85;4.40;;;;;;;;;;5057330;28;20191;-83
2021/07/19 03:25:15;;;;;;;4.20;3.80;;;;;;;;;;5057104;28;20202;-82
2021/07/19 03:27:43;;;;;;;4.20;3.90;;;;;;;;;;5057092;28;20236;-82
2021/07/19 03:30:12;;;;;;;5.03;3.57;;;;;;;;;;5075574;28;20210;-83
2021/07/19 03:32:39;;;;;;;4.53;4.13;;;;;;;;;;5057131;28;20252;-83
2021/07/19 03:35:06;;;;;;;5.15;3.92;;;;;;;;;;5075019;28;20210;-83
2021/07/19 03:37:33;;;;;;;6.20;3.73;;;;;;;;;;5074627;28;20221;-83
2021/07/19 03:40:00;;;;;;;4.63;4.23;;;;;;;;;;5057025;28;20194;-84
2021/07/19 03:42:27;;;;;;;5.27;4.50;;;;;;;;;;5055466;28;20237;-82
2021/07/19 03:44:54;;;;;;;6.78;4.28;;;;;;;;;;5056285;28;20264;-82
2021/07/19 03:47:22;;;;;;;4.93;4.50;;;;;;;;;;5056182;28;20231;-82
2021/07/19 03:49:49;;;;;;;6.38;4.15;;;;;;;;;;5055769;28;20557;-83
2021/07/19 03:52:16;;;;;;;12.60;4.40;;;;;;;;;;5074968;28;20179;-81
2021/07/19 03:54:43;;;;;;;4.83;4.17;;;;;;;;;;5074514;28;20276;-82
2021/07/19 03:57:09;;;;;;;4.73;4.40;;;;;;;;;;5074564;28;20186;-82
2021/07/19 03:59:38;;;;;;;4.70;4.40;;;;;;;;;;5074139;28;20249;-82
2021/07/19 04:02:10;;;;;;;4.53;4.13;;;;;;;;;;5074846;28;20534;-82
2021/07/19 04:04:41;;;;;;;4.57;4.18;;;;;;;;;;5074325;28;20206;-82
2021/07/19 04:07:08;;;;;;;5.57;4.00;;;;;;;;;;5074131;28;20559;-81
2021/07/19 04:09:37;;;;;;;4.67;4.13;;;;;;;;;;5074159;28;20210;-82
2021/07/19 04:12:05;;;;;;;4.63;4.27;;;;;;;;;;5056329;28;20191;-81
2021/07/19 04:14:32;;;;;;;5.07;4.20;;;;;;;;;;5074283;28;20606;-82
2021/07/19 04:16:58;;;;;;;4.50;4.10;;;;;;;;;;5073560;28;20215;-82
2021/07/19 04:19:26;;;;;;;4.37;4.10;;;;;;;;;;5056112;28;20198;-82
2021/07/19 04:21:54;;;;;;;4.37;4.00;;;;;;;;;;5056064;28;20209;-82
2021/07/19 04:24:21;;;;;;;13.03;4.57;;;;;;;;;;5056104;28;20195;-82
2021/07/19 04:26:47;;;;;;;7.75;4.95;;;;;;;;;;5073454;28;20264;-83
2021/07/19 04:29:14;;;;;;;6.50;4.30;;;;;;;;;;5073577;28;20253;-82
2021/07/19 04:31:43;;;;;;;4.40;4.10;;;;;;;;;;5073728;28;20198;-82
2021/07/19 04:34:09;;;;;;;5.25;4.53;;;;;;;;;;5056108;28;20614;-82
2021/07/19 04:36:36;;;;;;;7.80;4.50;;;;;;;;;;5055377;28;20202;-82
2021/07/19 04:39:05;;;;;;;7.53;4.53;;;;;;;;;;5073829;28;20635;-82
2021/07/19 04:41:32;;;;;;;4.80;4.40;;;;;;;;;;5073791;28;20206;-82
2021/07/19 04:43:59;;;;;;;7.40;4.40;;;;;;;;;;5055787;28;20199;-82
2021/07/19 04:46:25;;;;;;;4.80;4.40;;;;;;;;;;5073358;28;20258;-82
2021/07/19 04:48:52;;;;;;;5.07;4.10;;;;;;;;;;5073552;28;20206;-82
2021/07/19 04:51:19;;;;;;;4.57;4.17;;;;;;;;;;5073409;28;20253;-81
2021/07/19 04:53:48;;;;;;;4.87;4.13;;;;;;;;;;5054761;28;20268;-82
2021/07/19 04:56:17;;;;;;;4.35;3.90;;;;;;;;;;5055109;28;20211;-82
2021/07/19 04:58:45;;;;;;;4.50;4.10;;;;;;;;;;5055470;28;20198;-82
2021/07/19 05:01:12;;;;;;;7.03;4.20;;;;;;;;;;5073438;28;20175;-82
2021/07/19 05:03:41;;;;;;;9.23;3.93;;;;;;;;;;5073498;28;20627;-82
2021/07/19 05:06:08;;;;;;;4.32;3.97;;;;;;;;;;5073467;28;20241;-83
2021/07/19 05:08:35;;;;;;;4.10;3.72;;;;;;;;;;5073315;28;20179;-83
2021/07/19 05:11:02;;;;;;;7.53;3.67;;;;;;;;;;5073277;28;20175;-82
2021/07/19 05:13:31;;;;;;;6.22;4.03;;;;;;;;;;5073016;28;20261;-82
2021/07/19 05:15:58;;;;;;;4.28;3.92;;;;;;;;;;5072907;28;20221;-82
2021/07/19 05:18:25;;;;;;;4.00;3.67;;;;;;;;;;5055189;28;20202;-82
2021/07/19 05:20:52;;;;;;;6.30;3.60;;;;;;;;;;5054694;28;20198;-85
2021/07/19 05:23:21;;;;;;;5.15;4.38;;;;;;;;;;5072840;28;20215;-83
2021/07/19 05:25:48;;;;;;;4.30;4.00;;;;;;;;;;5055050;28;20202;-83
2021/07/19 05:28:15;;;;;;;5.50;4.00;;;;;;;;;;5054930;28;20213;-84
2021/07/19 05:30:44;;;;;;;7.70;3.80;;;;;;;;;;5072755;28;20570;-83
2021/07/19 05:33:11;;;;;;;9.82;4.20;;;;;;;;;;5072834;28;20245;-84
2021/07/19 05:35:38;;;;;;;8.20;4.07;;;;;;;;;;5073009;28;20230;-83
2021/07/19 05:38:05;;;;;;;9.00;3.78;;;;;;;;;;5072872;28;20206;-84
2021/07/19 05:40:32;;;;;;;6.60;3.92;;;;;;;;;;5072475;28;20221;-82
2021/07/19 05:42:59;;;;;;;4.40;3.97;;;;;;;;;;5072267;28;20211;-82
2021/07/19 05:45:25;;;;;;;4.35;3.95;;;;;;;;;;5054517;28;20224;-84
2021/07/19 05:47:54;;;;;;;4.18;3.90;;;;;;;;;;5054672;28;20228;-83
2021/07/19 05:50:21;;;;;;;5.47;3.58;;;;;;;;;;5054406;28;20210;-82
2021/07/19 05:52:47;;;;;;;7.95;4.05;;;;;;;;;;5053965;28;20202;-83
2021/07/19 05:55:14;;;;;;;4.43;3.78;;;;;;;;;;5072729;28;20254;-84
2021/07/19 05:57:41;;;;;;;3.90;3.58;;;;;;;;;;5054418;28;20187;-82
2021/07/19 06:00:10;;;;;;;3.90;3.60;;;;;;;;;;5072291;28;20234;-82
2021/07/19 06:02:36;;;;;;;10.43;3.88;;;;;;;;;;5053996;28;20198;-81
2021/07/19 06:05:05;;;;;;;4.18;3.72;;;;;;;;;;5072316;28;20253;-83
2021/07/19 06:07:32;;;;;;;8.32;3.95;;;;;;;;;;5057738;28;20203;-83
2021/07/19 06:09:58;;;;;;;4.57;4.00;;;;;;;;;;5076366;28;20204;-82
2021/07/19 06:12:25;;;;;;;7.45;4.03;;;;;;;;;;5058111;28;20256;-85
2021/07/19 06:14:52;;;;;;;6.82;3.80;;;;;;;;;;5057941;28;20245;-83
2021/07/19 06:17:20;;;;;;;3.72;3.40;;;;;;;;;;5058224;28;20202;-83
2021/07/19 06:19:46;;;;;;;4.63;3.40;;;;;;;;;;5076036;28;20190;-85
2021/07/19 06:22:16;;;;;;;3.33;3.03;;;;;;;;;;5057783;28;20248;-82
2021/07/19 06:24:43;;;;;;;5.63;3.22;;;;;;;;;;5057913;28;20495;-82
2021/07/19 06:27:10;;;;;;;3.33;3.03;;;;;;;;;;5075723;28;20237;-84
2021/07/19 06:29:36;;;;;;;7.53;3.53;;;;;;;;;;5075649;28;20203;-84
2021/07/19 06:32:03;;;;;;;6.35;3.13;;;;;;;;;;5057943;28;20199;-84
2021/07/19 06:34:30;;;;;;;5.07;3.47;;;;;;;;;;5075761;28;20227;-83
2021/07/19 06:36:57;;;;;;;3.85;3.25;;;;;;;;;;5057789;28;20217;-84
2021/07/19 06:39:25;;;;;;;3.50;3.20;;;;;;;;;;5075721;28;20206;-85
2021/07/19 06:41:51;;;;;;;4.72;3.25;;;;;;;;;;5056966;28;20221;-85
2021/07/19 06:44:18;;;;;;;4.78;3.42;;;;;;;;;;5057519;28;20202;-85
2021/07/19 06:46:45;;;;;;;4.60;3.58;;;;;;;;;;5018382;28;20278;-83
2021/07/19 06:49:11;;;;;;;4.18;3.38;;;;;;;;;;4978567;28;20245;-85
2021/07/19 06:51:38;;;;;;;4.72;3.83;;;;;;;;;;4978466;28;20225;-84
2021/07/19 06:54:05;;;;;;;4.68;3.60;;;;;;;;;;4996195;28;20552;-84
2021/07/19 06:56:33;;;;;;;5.45;3.67;;;;;;;;;;4978752;28;20732;-82
2021/07/19 06:59:00;;;;;;;3.53;3.22;;;;;;;;;;4978657;28;20561;-85
2021/07/19 07:01:26;;;;;;;4.97;3.08;;;;;;;;;;4995953;28;20264;-83
2021/07/19 07:03:53;;;;;;;3.95;3.40;;;;;;;;;;4996443;28;20546;-84
2021/07/19 07:06:19;;;;;;;4.50;3.22;;;;;;;;;;4978634;28;20224;-83
2021/07/19 07:08:46;;;;;;;3.85;3.42;;;;;;;;;;4978305;28;20662;-85
2021/07/19 07:11:14;;;;;;;3.72;3.13;;;;;;;;;;4995953;28;20185;-85
2021/07/19 07:13:42;;;;;;;6.68;3.28;;;;;;;;;;4978234;28;20272;-84
2021/07/19 07:16:09;;;;;;;3.95;3.60;;;;;;;;;;4995578;28;20268;-85
2021/07/19 07:18:35;;;;;;;4.60;3.45;;;;;;;;;;4978091;28;20210;-86
2021/07/19 07:21:02;;;;;;;5.45;3.53;;;;;;;;;;4995669;28;20216;-85
2021/07/19 07:23:29;;;;;;;7.32;3.72;;;;;;;;;;4978277;28;20650;-84
2021/07/19 07:25:55;;;;;;;6.05;3.85;;;;;;;;;;4995261;28;20241;-85
2021/07/19 07:28:22;;;;;;;4.03;3.28;;;;;;;;;;4995776;28;20213;-85
2021/07/19 07:30:50;;;;;;;5.00;3.30;;;;;;;;;;4977847;28;20221;-84
2021/07/19 07:33:17;;;;;;;5.47;3.13;;;;;;;;;;4977782;28;20233;-88
2021/07/19 07:35:45;;;;;;;3.47;3.13;;;;;;;;;;4995615;28;20245;-86
2021/07/19 07:38:12;;;;;;;3.58;3.25;;;;;;;;;;4978105;28;20236;-84
2021/07/19 07:40:39;;;;;;;11.45;3.70;;;;;;;;;;4995110;28;20237;-87
2021/07/19 07:43:05;;;;;;;7.93;3.42;;;;;;;;;;4977606;28;20205;-85
2021/07/19 07:45:32;;;;;;;4.57;3.50;;;;;;;;;;4977361;28;20197;-85
2021/07/19 07:48:00;;;;;;;4.32;2.92;;;;;;;;;;4995253;28;20182;-85
2021/07/19 07:50:27;;;;;;;8.77;3.20;;;;;;;;;;4994020;28;20225;-85
2021/07/19 07:52:53;;;;;;;3.30;2.95;;;;;;;;;;4993973;28;20240;-87
2021/07/19 07:55:20;;;;;;;4.20;3.08;;;;;;;;;;4994849;28;20253;-85
2021/07/19 07:57:47;;;;;;;6.25;3.08;;;;;;;;;;4994384;28;20248;-85
2021/07/19 08:00:14;;;;;;;4.10;3.00;;;;;;;;;;4995432;28;20218;-88
2021/07/19 08:02:42;;;;;;;4.70;3.75;;;;;;;;;;4977907;28;20232;-84
2021/07/19 08:05:11;;;;;;;6.50;3.85;;;;;;;;;;4977162;28;20251;-85
2021/07/19 08:07:38;;;;;;;6.90;3.53;;;;;;;;;;4977645;28;20202;-84
2021/07/19 08:10:06;;;;;;;3.75;3.45;;;;;;;;;;4995002;28;20253;-84
2021/07/19 08:12:33;;;;;;;6.15;3.75;;;;;;;;;;4995166;28;20241;-88
2021/07/19 08:15:03;;;;;;;8.75;3.75;;;;;;;;;;4977339;28;20249;-84
2021/07/19 08:17:30;;;;;;;3.95;3.63;;;;;;;;;;4977055;28;20210;-87
2021/07/19 08:19:57;;;;;;;4.70;3.30;;;;;;;;;;4977180;28;20583;-85
2021/07/19 08:22:26;;;;;;;8.65;3.50;;;;;;;;;;4994590;28;20744;-86
2021/07/19 08:24:53;;;;;;;4.57;3.72;;;;;;;;;;4977158;28;20198;-85
2021/07/19 08:27:19;;;;;;;5.15;3.90;;;;;;;;;;4994258;28;20210;-85
2021/07/19 08:29:49;;;;;;;6.03;3.78;;;;;;;;;;4976460;28;20198;-83
2021/07/19 08:32:16;;;;;;;4.50;3.38;;;;;;;;;;4976729;28;20206;-85
2021/07/19 08:34:45;;;;;;;5.40;3.45;;;;;;;;;;4977342;28;20601;-85
2021/07/19 08:37:11;;;;;;;8.23;4.45;;;;;;;;;;4977087;28;20194;-85
2021/07/19 08:39:39;;;;;;;3.85;3.47;;;;;;;;;;4992677;28;20229;-85
2021/07/19 08:42:08;;;;;;;3.58;3.28;;;;;;;;;;4976945;28;20198;-84
2021/07/19 08:44:34;;;;;;;3.75;3.03;;;;;;;;;;4976756;28;20654;-85
2021/07/19 08:47:01;;;;;;;8.50;3.58;;;;;;;;;;4994683;28;20678;-89
2021/07/19 08:49:29;;;;;;;5.07;4.35;;;;;;;;;;4977615;28;20194;-86
2021/07/19 08:51:56;;;;;;;4.55;3.20;;;;;;;;;;4977101;28;20602;-88
2021/07/19 08:54:24;;;;;;;5.57;3.08;;;;;;;;;;4977868;28;20251;-86
2021/07/19 08:56:52;;;;;;;3.67;3.15;;;;;;;;;;4994855;28;20280;-87
2021/07/19 08:59:19;;;;;;;3.70;3.38;;;;;;;;;;4976504;28;20209;-86
2021/07/19 09:01:46;;;;;;;3.50;3.13;;;;;;;;;;4994150;28;20248;-88
2021/07/19 09:04:17;;;;;;;4.05;3.63;;;;;;;;;;4977466;28;20205;-85
2021/07/19 09:06:44;;;;;;;5.18;3.60;;;;;;;;;;4976536;28;20213;-83
2021/07/19 09:09:11;;;;;;;4.97;3.40;;;;;;;;;;4993974;28;20214;-85
2021/07/19 09:11:47;;;;;;;5.07;3.60;;;;;;;;;;4993706;28;20206;-83
2021/07/19 09:14:15;;;;;;;5.10;3.25;;;;;;;;;;4976467;28;20198;-84
2021/07/19 09:16:42;;;;;;;8.05;3.22;;;;;;;;;;4976320;28;20237;-83
2021/07/19 09:19:10;;;;;;;3.95;2.88;;;;;;;;;;4975955;28;20653;-83
2021/07/19 09:21:37;;;;;;;6.50;3.08;;;;;;;;;;4976248;28;20229;-81
2021/07/19 09:24:08;;;;;;;6.00;2.90;;;;;;;;;;4976340;28;20194;-84
2021/07/19 09:26:36;;;;;;;7.53;2.97;;;;;;;;;;4993803;28;20182;-85
2021/07/19 09:29:03;;;;;;;7.55;3.05;;;;;;;;;;4993383;28;20217;-84
2021/07/19 09:31:33;;;;;;;3.78;2.90;;;;;;;;;;4993694;28;20588;-85
2021/07/19 09:34:00;;;;;;;4.88;3.22;;;;;;;;;;4993759;28;20241;-88
2021/07/19 09:36:31;;;;;;;5.15;2.70;;;;;;;;;;4975934;28;20249;-83
2021/07/19 09:39:07;;;;;;;3.75;3.10;;;;;;;;;;4993605;28;20217;-86
2021/07/19 09:41:34;;;;;;;4.63;3.03;;;;;;;;;;4995475;28;20245;-83
2021/07/19 09:44:01;;;;;;;4.63;2.83;;;;;;;;;;4997465;28;20182;-83
2021/07/19 09:46:35;;;;;;;4.90;3.28;;;;;;;;;;4997059;28;20234;-84
2021/07/19 09:49:02;;;;;;;5.90;3.10;;;;;;;;;;4979935;28;20229;-86
2021/07/19 09:51:29;;;;;;;3.15;2.95;;;;;;;;;;4997440;28;20209;-86
2021/07/19 09:53:55;;;;;;;6.75;3.40;;;;;;;;;;4997413;28;20210;-85
2021/07/19 09:56:23;;;;;;;4.40;2.88;;;;;;;;;;4979958;28;20252;-89
2021/07/19 09:58:50;;;;;;;4.85;3.00;;;;;;;;;;4979725;28;20212;-84
2021/07/19 10:01:27;;;;;;;3.30;3.05;;;;;;;;;;4980117;28;20198;-81
2021/07/19 10:04:03;;;;;;;5.78;2.90;;;;;;;;;;4997668;28;20209;-85
2021/07/19 10:06:30;;;;;;;3.40;3.10;;;;;;;;;;4979649;28;20725;-82
2021/07/19 10:08:57;;;;;;;2.83;2.63;;;;;;;;;;4997237;28;20240;-83
2021/07/19 10:11:24;;;;;;;5.10;3.00;;;;;;;;;;4979738;28;20198;-84
2021/07/19 10:13:52;;;;;;;3.78;3.05;;;;;;;;;;4996358;28;20201;-87
2021/07/19 10:16:19;;;;;;;3.38;3.03;;;;;;;;;;4979680;28;20256;-77
2021/07/19 10:18:46;;;;;;;5.30;2.80;;;;;;;;;;4979583;28;20205;-79
2021/07/19 10:21:15;;;;;;;4.43;3.00;;;;;;;;;;4979739;28;20245;-79
2021/07/19 10:23:41;;;;;;;3.15;2.75;;;;;;;;;;4979610;28;20237;-80
2021/07/19 10:26:11;;;;;;;7.32;2.90;;;;;;;;;;4979827;28;20197;-77
2021/07/19 10:28:38;;;;;;;4.47;3.08;;;;;;;;;;4996877;28;20712;-80
2021/07/19 10:31:05;;;;;;;3.40;2.72;;;;;;;;;;4996884;28;20646;-79
2021/07/19 10:33:32;;;;;;;3.88;2.75;;;;;;;;;;4997038;28;20209;-79
2021/07/19 10:36:01;;;;;;;4.15;2.50;;;;;;;;;;4996630;28;20276;-80
2021/07/19 10:38:30;;;;;;;7.75;2.88;;;;;;;;;;4979381;28;20240;-80
2021/07/19 10:40:57;;;;;;;3.10;2.80;;;;;;;;;;4996673;28;20229;-79
2021/07/19 10:43:27;;;;;;;5.22;2.85;;;;;;;;;;4978907;28;20190;-80
2021/07/19 10:45:56;;;;;;;3.88;3.00;;;;;;;;;;4979491;28;20234;-79
2021/07/19 10:48:24;;;;;;;3.90;3.60;;;;;;;;;;4979133;28;20201;-79
2021/07/19 10:50:52;;;;;;;4.65;3.00;;;;;;;;;;4978950;28;20690;-78
2021/07/19 10:53:20;;;;;;;4.20;2.80;;;;;;;;;;4996091;28;20567;-78
2021/07/19 10:56:00;;;;;;;5.28;2.88;;;;;;;;;;4978900;28;20241;-79
2021/07/19 10:58:36;;;;;;;5.60;2.95;;;;;;;;;;4996377;28;20620;-79
2021/07/19 11:01:03;;;;;;;6.90;2.60;;;;;;;;;;4996296;28;20211;-79
2021/07/19 11:03:48;;;;;;;3.72;2.67;;;;;;;;;;4995104;28;20252;-80
2021/07/19 11:06:14;;;;;;;6.78;2.72;;;;;;;;;;4996070;28;20248;-80
2021/07/19 11:08:51;;;;;;;4.85;2.92;;;;;;;;;;4978746;28;20194;-78
2021/07/19 11:11:29;;;;;;;6.78;2.67;;;;;;;;;;4996319;28;20189;-79
2021/07/19 11:13:57;;;;;;;3.03;2.80;;;;;;;;;;4978364;28;20259;-79
2021/07/19 11:16:24;;;;;;;4.53;3.00;;;;;;;;;;4978646;28;20293;-79
2021/07/19 11:18:56;;;;;;;2.53;2.40;;;;;;;;;;4978591;28;20252;-80
2021/07/19 11:21:24;;;;;;;5.25;2.75;;;;;;;;;;4995249;28;20206;-80
2021/07/19 11:23:51;;;;;;;3.45;2.47;;;;;;;;;;4976620;28;20238;-81
2021/07/19 11:26:22;;;;;;;8.82;2.70;;;;;;;;;;4976786;28;20206;-82
2021/07/19 11:28:50;;;;;;;5.85;3.03;;;;;;;;;;4959775;28;20206;-81
2021/07/19 11:31:20;;;;;;;5.47;2.78;;;;;;;;;;4976967;28;20536;-79
2021/07/19 11:33:48;;;;;;;5.03;2.50;;;;;;;;;;4959453;28;20706;-79
2021/07/19 11:36:16;;;;;;;3.80;2.90;;;;;;;;;;4959120;28;20254;-79
2021/07/19 11:38:44;;;;;;;5.07;2.40;;;;;;;;;;4958942;28;20562;-79
2021/07/19 11:41:14;;;;;;;3.67;2.75;;;;;;;;;;4976483;28;20217;-79
2021/07/19 11:43:41;;;;;;;4.07;2.20;;;;;;;;;;4958825;28;20225;-81
2021/07/19 11:46:09;;;;;;;2.15;2.05;;;;;;;;;;4969397;28;20281;-80
2021/07/19 11:48:36;;;;;;;3.38;2.20;;;;;;;;;;4975806;28;20210;-80
2021/07/19 11:51:03;;;;;;;2.83;2.53;;;;;;;;;;4957327;28;20226;-80
2021/07/19 11:53:30;;;;;;;2.45;2.25;;;;;;;;;;4957315;28;20234;-81
2021/07/19 11:56:03;;;;;;;3.13;2.50;;;;;;;;;;4957694;28;20285;-78
2021/07/19 11:58:29;;;;;;;2.28;2.08;;;;;;;;;;4958414;28;20230;-78
2021/07/19 12:01:01;;;;;;;2.78;2.30;;;;;;;;;;4958154;28;20207;-79
2021/07/19 12:03:29;;;;;;;5.43;2.45;;;;;;;;;;4957111;28;20242;-79
2021/07/19 12:05:57;;;;;;;2.60;2.40;;;;;;;;;;4975580;28;20661;-79
2021/07/19 12:08:24;;;;;;;3.95;2.40;;;;;;;;;;4958436;28;20198;-78
2021/07/19 12:10:53;;;;;;;5.90;2.20;;;;;;;;;;4975221;28;20253;-78
2021/07/19 12:13:20;;;;;;;4.68;2.65;;;;;;;;;;4975864;28;20183;-79
2021/07/19 12:15:50;;;;;;;3.35;2.13;;;;;;;;;;4975840;28;20234;-78
2021/07/19 12:18:26;;;;;;;3.20;2.40;;;;;;;;;;4958321;28;20210;-78
2021/07/19 12:20:55;;;;;;;5.93;2.33;;;;;;;;;;4975184;28;20199;-79
2021/07/19 12:23:22;;;;;;;3.60;2.30;;;;;;;;;;4957687;28;20210;-78
2021/07/19 12:25:56;;;;;;;3.03;2.28;;;;;;;;;;4958217;28;20253;-77
2021/07/19 12:28:23;;;;;;;3.72;2.30;;;;;;;;;;4958095;28;20237;-76
2021/07/19 12:30:50;;;;;;;2.35;2.10;;;;;;;;;;4958039;28;20249;-77
2021/07/19 12:33:21;;;;;;;4.22;2.28;;;;;;;;;;4957885;28;20195;-78
2021/07/19 12:35:50;;;;;;;5.30;2.30;;;;;;;;;;4958000;28;20737;-79
2021/07/19 12:38:18;;;;;;;6.15;2.13;;;;;;;;;;4975049;28;20226;-76
2021/07/19 12:40:45;;;;;;;3.67;2.55;;;;;;;;;;4957385;28;20647;-78
2021/07/19 12:43:12;;;;;;;3.85;2.58;;;;;;;;;;4957368;28;20206;-81
2021/07/19 12:45:39;;;;;;;3.90;2.38;;;;;;;;;;4975121;28;20210;-78
2021/07/19 12:48:06;;;;;;;2.55;2.38;;;;;;;;;;4994438;28;20611;-80
2021/07/19 12:50:33;;;;;;;2.63;2.42;;;;;;;;;;4993146;28;20562;-78
2021/07/19 12:53:11;;;;;;;9.27;2.80;;;;;;;;;;4994326;28;20206;-77
2021/07/19 12:55:39;;;;;;;4.18;2.33;;;;;;;;;;4976943;28;20665;-79
2021/07/19 12:58:07;;;;;;;3.65;2.58;;;;;;;;;;4994269;28;20225;-81
2021/07/19 13:00:33;;;;;;;2.78;2.30;;;;;;;;;;4994089;28;20237;-79
2021/07/19 13:03:04;;;;;;;7.78;3.10;;;;;;;;;;4993976;28;20217;-79
2021/07/19 13:05:31;;;;;;;8.98;2.80;;;;;;;;;;4976656;28;20216;-79
2021/07/19 13:07:57;;;;;;;4.03;2.42;;;;;;;;;;4977148;28;20557;-80
2021/07/19 13:10:25;;;;;;;8.18;2.30;;;;;;;;;;4994248;28;20605;-79
2021/07/19 13:12:56;;;;;;;2.85;2.65;;;;;;;;;;4974934;28;20201;-78
2021/07/19 13:15:23;;;;;;;3.92;2.60;;;;;;;;;;4994052;28;20193;-79
2021/07/19 13:18:01;;;;;;;4.45;2.90;;;;;;;;;;4976389;28;20678;-79
2021/07/19 13:20:28;;;;;;;3.83;3.45;;;;;;;;;;4994030;28;20186;-81
2021/07/19 13:22:54;;;;;;;4.93;3.05;;;;;;;;;;4976322;28;20214;-79
2021/07/19 13:25:22;;;;;;;4.57;3.30;;;;;;;;;;4976408;28;20205;-80
2021/07/19 13:27:49;;;;;;;8.23;3.72;;;;;;;;;;4993903;28;20178;-80
2021/07/19 13:30:18;;;;;;;7.13;3.35;;;;;;;;;;4976574;28;20205;-81
2021/07/19 13:32:45;;;;;;;3.20;2.90;;;;;;;;;;4992440;28;20289;-81
2021/07/19 13:35:13;;;;;;;3.80;3.40;;;;;;;;;;4993879;28;20178;-81
2021/07/19 13:37:41;;;;;;;3.85;3.05;;;;;;;;;;4976094;28;20295;-80
2021/07/19 13:40:09;;;;;;;3.33;3.10;;;;;;;;;;4976421;28;20213;-80
2021/07/19 13:42:36;;;;;;;4.00;3.70;;;;;;;;;;4993752;28;20220;-80
2021/07/19 13:45:04;;;;;;;5.20;3.80;;;;;;;;;;4976077;28;20523;-81
2021/07/19 13:47:32;;;;;;;9.05;4.00;;;;;;;;;;4993554;28;20264;-81
2021/07/19 13:50:02;;;;;;;6.68;3.97;;;;;;;;;;4993545;28;20272;-82
2021/07/19 13:52:28;;;;;;;11.27;4.20;;;;;;;;;;4976135;28;20574;-82
2021/07/19 13:54:55;;;;;;;7.65;4.28;;;;;;;;;;4976499;28;20677;-79
2021/07/19 13:57:22;;;;;;;4.50;4.10;;;;;;;;;;4993453;28;20260;-79
2021/07/19 13:59:48;;;;;;;6.32;4.25;;;;;;;;;;4976208;28;20225;-79
2021/07/19 14:02:17;;;;;;;4.93;4.43;;;;;;;;;;4993423;28;20178;-80
2021/07/19 14:04:45;;;;;;;4.57;4.18;;;;;;;;;;4993587;28;20205;-80
2021/07/19 14:07:15;;;;;;;6.57;4.45;;;;;;;;;;4992128;28;20245;-80
2021/07/19 14:09:42;;;;;;;5.75;4.55;;;;;;;;;;4993548;28;20210;-79
2021/07/19 14:12:09;;;;;;;5.45;4.95;;;;;;;;;;4975874;28;20658;-79
2021/07/19 14:14:36;;;;;;;8.02;5.00;;;;;;;;;;4993328;28;20244;-78
2021/07/19 14:17:03;;;;;;;8.93;5.07;;;;;;;;;;4993228;28;20248;-78
2021/07/19 14:19:30;;;;;;;8.93;5.18;;;;;;;;;;4974547;28;20206;-80
2021/07/19 14:21:58;;;;;;;5.53;5.10;;;;;;;;;;4976074;28;20205;-79
2021/07/19 14:24:25;;;;;;;5.25;4.75;;;;;;;;;;4975732;28;20201;-81
2021/07/19 14:26:52;;;;;;;6.30;5.63;;;;;;;;;;4994115;28;20273;-80
2021/07/19 14:29:18;;;;;;;5.75;5.25;;;;;;;;;;4979319;28;20252;-80
2021/07/19 14:31:51;;;;;;;8.02;5.55;;;;;;;;;;4979318;28;20190;-78
2021/07/19 14:34:20;;;;;;;6.32;5.32;;;;;;;;;;4979324;28;20642;-80
2021/07/19 14:36:47;;;;;;;6.93;5.40;;;;;;;;;;4996788;28;20218;-79
2021/07/19 14:39:15;;;;;;;11.23;5.70;;;;;;;;;;4979199;28;20264;-80
2021/07/19 14:41:42;;;;;;;6.60;5.90;;;;;;;;;;4979463;28;20229;-80
2021/07/19 14:44:09;;;;;;;6.75;6.05;;;;;;;;;;4979159;28;20218;-78
2021/07/19 14:46:37;;;;;;;12.70;5.85;;;;;;;;;;4979015;28;20233;-78